sensor_id;sensor_type;location;lat;lon;timestamp;temperature;humidity
23147;DHT22;11742;53.532;-1.478;2022-08-01T00:00:06;21.50;67.50
23147;DHT22;11742;53.532;-1.478;2022-08-01T00:02:32;21.50;67.50
23147;DHT22;11742;53.532;-1.478;2022-08-01T00:04:58;21.50;67.50
23147;DHT22;11742;53.532;-1.478;2022-08-01T00:07:25;21.50;67.50
23147;DHT22;11742;53.532;-1.478;2022-08-01T00:09:51;21.50;67.40
23147;DHT22;11742;53.532;-1.478;2022-08-01T00:12:17;21.50;67.30
23147;DHT22;11742;53.532;-1.478;2022-08-01T00:14:42;21.40;67.40
23147;DHT22;11742;53.532;-1.478;2022-08-01T00:17:08;21.40;67.60
23147;DHT22;11742;53.532;-1.478;2022-08-01T00:19:34;21.40;67.40
23147;DHT22;11742;53.532;-1.478;2022-08-01T00:22:00;21.40;67.60
23147;DHT22;11742;53.532;-1.478;2022-08-01T00:24:25;21.40;67.50
23147;DHT22;11742;53.532;-1.478;2022-08-01T00:26:51;21.40;67.70
23147;DHT22;11742;53.532;-1.478;2022-08-01T00:29:17;21.30;67.60
23147;DHT22;11742;53.532;-1.478;2022-08-01T00:31:42;21.30;67.60
23147;DHT22;11742;53.532;-1.478;2022-08-01T00:34:08;21.30;67.60
23147;DHT22;11742;53.532;-1.478;2022-08-01T00:36:34;21.30;67.70
23147;DHT22;11742;53.532;-1.478;2022-08-01T00:38:59;21.30;67.80
23147;DHT22;11742;53.532;-1.478;2022-08-01T00:41:25;21.30;67.70
23147;DHT22;11742;53.532;-1.478;2022-08-01T00:43:51;21.30;67.80
23147;DHT22;11742;53.532;-1.478;2022-08-01T00:46:16;21.30;67.80
23147;DHT22;11742;53.532;-1.478;2022-08-01T00:48:42;21.30;67.80
23147;DHT22;11742;53.532;-1.478;2022-08-01T00:51:08;21.30;67.70
23147;DHT22;11742;53.532;-1.478;2022-08-01T00:53:34;21.20;67.70
23147;DHT22;11742;53.532;-1.478;2022-08-01T00:56:01;21.20;67.80
23147;DHT22;11742;53.532;-1.478;2022-08-01T00:58:27;21.20;67.70
23147;DHT22;11742;53.532;-1.478;2022-08-01T01:00:56;21.20;67.70
23147;DHT22;11742;53.532;-1.478;2022-08-01T01:03:23;21.20;67.70
23147;DHT22;11742;53.532;-1.478;2022-08-01T01:11:31;21.20;67.90
23147;DHT22;11742;53.532;-1.478;2022-08-01T01:14:06;21.10;67.90
23147;DHT22;11742;53.532;-1.478;2022-08-01T01:16:37;21.10;67.80
23147;DHT22;11742;53.532;-1.478;2022-08-01T01:19:10;21.10;67.80
23147;DHT22;11742;53.532;-1.478;2022-08-01T01:27:18;21.00;67.80
23147;DHT22;11742;53.532;-1.478;2022-08-01T01:29:51;21.00;67.90
23147;DHT22;11742;53.532;-1.478;2022-08-01T01:32:36;21.00;68.00
23147;DHT22;11742;53.532;-1.478;2022-08-01T01:35:09;21.00;68.10
23147;DHT22;11742;53.532;-1.478;2022-08-01T01:37:38;20.90;68.10
23147;DHT22;11742;53.532;-1.478;2022-08-01T01:40:06;20.90;68.20
23147;DHT22;11742;53.532;-1.478;2022-08-01T01:42:33;20.90;68.30
23147;DHT22;11742;53.532;-1.478;2022-08-01T01:45:03;20.80;68.20
23147;DHT22;11742;53.532;-1.478;2022-08-01T01:47:29;20.80;68.20
23147;DHT22;11742;53.532;-1.478;2022-08-01T01:49:57;20.80;68.30
23147;DHT22;11742;53.532;-1.478;2022-08-01T01:52:26;20.80;68.40
23147;DHT22;11742;53.532;-1.478;2022-08-01T01:54:54;20.80;68.40
23147;DHT22;11742;53.532;-1.478;2022-08-01T01:57:22;20.80;68.40
23147;DHT22;11742;53.532;-1.478;2022-08-01T01:59:50;20.80;68.40
23147;DHT22;11742;53.532;-1.478;2022-08-01T02:02:17;20.80;68.40
23147;DHT22;11742;53.532;-1.478;2022-08-01T02:04:45;20.70;68.30
23147;DHT22;11742;53.532;-1.478;2022-08-01T02:07:14;20.70;68.40
23147;DHT22;11742;53.532;-1.478;2022-08-01T02:09:43;20.70;68.50
23147;DHT22;11742;53.532;-1.478;2022-08-01T02:12:11;20.70;68.70
23147;DHT22;11742;53.532;-1.478;2022-08-01T02:14:38;20.70;68.70
23147;DHT22;11742;53.532;-1.478;2022-08-01T02:17:10;20.70;68.70
23147;DHT22;11742;53.532;-1.478;2022-08-01T02:19:37;20.70;68.80
23147;DHT22;11742;53.532;-1.478;2022-08-01T02:22:18;20.70;68.80
23147;DHT22;11742;53.532;-1.478;2022-08-01T02:24:54;20.60;68.80
23147;DHT22;11742;53.532;-1.478;2022-08-01T02:28:06;20.60;68.80
23147;DHT22;11742;53.532;-1.478;2022-08-01T02:30:35;20.60;68.80
23147;DHT22;11742;53.532;-1.478;2022-08-01T02:35:41;20.60;69.20
23147;DHT22;11742;53.532;-1.478;2022-08-01T02:38:10;20.60;69.10
23147;DHT22;11742;53.532;-1.478;2022-08-01T02:40:40;20.50;69.00
23147;DHT22;11742;53.532;-1.478;2022-08-01T02:43:09;20.50;69.20
23147;DHT22;11742;53.532;-1.478;2022-08-01T02:45:37;20.50;69.10
23147;DHT22;11742;53.532;-1.478;2022-08-01T02:48:10;20.50;69.10
23147;DHT22;11742;53.532;-1.478;2022-08-01T02:50:37;20.50;69.10
23147;DHT22;11742;53.532;-1.478;2022-08-01T02:53:05;20.50;69.20
23147;DHT22;11742;53.532;-1.478;2022-08-01T02:55:34;20.50;69.20
23147;DHT22;11742;53.532;-1.478;2022-08-01T02:58:01;20.50;69.20
23147;DHT22;11742;53.532;-1.478;2022-08-01T03:00:29;20.40;69.20
23147;DHT22;11742;53.532;-1.478;2022-08-01T03:02:56;20.50;69.40
23147;DHT22;11742;53.532;-1.478;2022-08-01T03:05:24;20.40;69.30
23147;DHT22;11742;53.532;-1.478;2022-08-01T03:07:51;20.40;69.30
23147;DHT22;11742;53.532;-1.478;2022-08-01T03:10:18;20.40;69.30
23147;DHT22;11742;53.532;-1.478;2022-08-01T03:12:45;20.40;69.40
23147;DHT22;11742;53.532;-1.478;2022-08-01T03:15:13;20.40;69.30
23147;DHT22;11742;53.532;-1.478;2022-08-01T03:17:41;20.40;69.30
23147;DHT22;11742;53.532;-1.478;2022-08-01T03:20:11;20.40;69.30
23147;DHT22;11742;53.532;-1.478;2022-08-01T03:22:39;20.30;69.30
23147;DHT22;11742;53.532;-1.478;2022-08-01T03:25:06;20.30;70.20
23147;DHT22;11742;53.532;-1.478;2022-08-01T03:27:35;20.30;69.30
23147;DHT22;11742;53.532;-1.478;2022-08-01T03:30:03;20.30;69.40
23147;DHT22;11742;53.532;-1.478;2022-08-01T03:32:30;20.30;69.40
23147;DHT22;11742;53.532;-1.478;2022-08-01T03:34:57;20.30;69.50
23147;DHT22;11742;53.532;-1.478;2022-08-01T03:37:50;20.30;69.50
23147;DHT22;11742;53.532;-1.478;2022-08-01T03:40:22;20.30;69.40
23147;DHT22;11742;53.532;-1.478;2022-08-01T03:42:52;20.30;69.60
23147;DHT22;11742;53.532;-1.478;2022-08-01T03:45:40;20.20;69.60
23147;DHT22;11742;53.532;-1.478;2022-08-01T03:48:13;20.20;69.70
23147;DHT22;11742;53.532;-1.478;2022-08-01T03:50:42;20.20;69.60
23147;DHT22;11742;53.532;-1.478;2022-08-01T03:53:09;20.20;69.60
23147;DHT22;11742;53.532;-1.478;2022-08-01T03:55:37;20.20;69.50
23147;DHT22;11742;53.532;-1.478;2022-08-01T03:58:04;20.10;69.60
23147;DHT22;11742;53.532;-1.478;2022-08-01T04:00:30;20.10;69.60
23147;DHT22;11742;53.532;-1.478;2022-08-01T04:02:56;20.10;69.60
23147;DHT22;11742;53.532;-1.478;2022-08-01T04:05:23;20.10;69.60
23147;DHT22;11742;53.532;-1.478;2022-08-01T04:07:50;20.10;69.60
23147;DHT22;11742;53.532;-1.478;2022-08-01T04:10:24;20.00;69.50
23147;DHT22;11742;53.532;-1.478;2022-08-01T04:12:51;20.10;69.50
23147;DHT22;11742;53.532;-1.478;2022-08-01T04:15:17;20.00;69.30
23147;DHT22;11742;53.532;-1.478;2022-08-01T04:17:43;20.00;69.30
23147;DHT22;11742;53.532;-1.478;2022-08-01T04:20:10;20.00;69.30
23147;DHT22;11742;53.532;-1.478;2022-08-01T04:22:36;20.00;69.20
23147;DHT22;11742;53.532;-1.478;2022-08-01T04:25:07;20.00;69.10
23147;DHT22;11742;53.532;-1.478;2022-08-01T04:27:38;20.00;69.00
23147;DHT22;11742;53.532;-1.478;2022-08-01T04:30:06;20.00;69.00
23147;DHT22;11742;53.532;-1.478;2022-08-01T04:32:35;20.00;68.90
23147;DHT22;11742;53.532;-1.478;2022-08-01T04:35:09;19.90;68.90
23147;DHT22;11742;53.532;-1.478;2022-08-01T04:37:37;19.90;68.70
23147;DHT22;11742;53.532;-1.478;2022-08-01T04:40:04;19.90;68.80
23147;DHT22;11742;53.532;-1.478;2022-08-01T04:42:33;20.00;68.80
23147;DHT22;11742;53.532;-1.478;2022-08-01T04:44:59;19.90;68.70
23147;DHT22;11742;53.532;-1.478;2022-08-01T04:47:26;19.90;68.60
23147;DHT22;11742;53.532;-1.478;2022-08-01T04:49:52;19.90;68.60
23147;DHT22;11742;53.532;-1.478;2022-08-01T04:52:19;19.80;68.40
23147;DHT22;11742;53.532;-1.478;2022-08-01T04:54:45;19.80;68.40
23147;DHT22;11742;53.532;-1.478;2022-08-01T04:57:12;19.80;68.40
23147;DHT22;11742;53.532;-1.478;2022-08-01T04:59:42;19.80;68.50
23147;DHT22;11742;53.532;-1.478;2022-08-01T05:02:10;19.80;68.70
23147;DHT22;11742;53.532;-1.478;2022-08-01T05:04:37;19.70;68.60
23147;DHT22;11742;53.532;-1.478;2022-08-01T05:07:03;19.70;68.70
23147;DHT22;11742;53.532;-1.478;2022-08-01T05:09:30;19.70;68.70
23147;DHT22;11742;53.532;-1.478;2022-08-01T05:11:57;19.70;68.70
23147;DHT22;11742;53.532;-1.478;2022-08-01T05:14:25;19.70;68.90
23147;DHT22;11742;53.532;-1.478;2022-08-01T05:16:51;19.60;69.00
23147;DHT22;11742;53.532;-1.478;2022-08-01T05:19:17;19.60;69.00
23147;DHT22;11742;53.532;-1.478;2022-08-01T05:21:42;19.60;69.00
23147;DHT22;11742;53.532;-1.478;2022-08-01T05:24:08;19.60;69.20
23147;DHT22;11742;53.532;-1.478;2022-08-01T05:26:34;19.50;69.10
23147;DHT22;11742;53.532;-1.478;2022-08-01T05:29:00;19.50;69.30
23147;DHT22;11742;53.532;-1.478;2022-08-01T05:31:26;19.50;69.20
23147;DHT22;11742;53.532;-1.478;2022-08-01T05:33:51;19.50;69.30
23147;DHT22;11742;53.532;-1.478;2022-08-01T05:36:17;19.40;69.30
23147;DHT22;11742;53.532;-1.478;2022-08-01T05:38:43;19.50;69.40
23147;DHT22;11742;53.532;-1.478;2022-08-01T05:41:09;19.40;69.50
23147;DHT22;11742;53.532;-1.478;2022-08-01T05:43:35;19.40;69.60
23147;DHT22;11742;53.532;-1.478;2022-08-01T05:46:01;19.40;69.70
23147;DHT22;11742;53.532;-1.478;2022-08-01T05:48:27;19.40;69.80
23147;DHT22;11742;53.532;-1.478;2022-08-01T05:50:53;19.40;69.80
23147;DHT22;11742;53.532;-1.478;2022-08-01T05:53:19;19.40;69.90
23147;DHT22;11742;53.532;-1.478;2022-08-01T05:55:45;19.30;69.90
23147;DHT22;11742;53.532;-1.478;2022-08-01T05:58:10;19.30;70.10
23147;DHT22;11742;53.532;-1.478;2022-08-01T06:00:36;19.30;70.10
23147;DHT22;11742;53.532;-1.478;2022-08-01T06:03:02;19.30;70.20
23147;DHT22;11742;53.532;-1.478;2022-08-01T06:05:28;19.30;70.40
23147;DHT22;11742;53.532;-1.478;2022-08-01T06:07:53;19.30;70.40
23147;DHT22;11742;53.532;-1.478;2022-08-01T06:10:19;19.30;71.40
23147;DHT22;11742;53.532;-1.478;2022-08-01T06:12:45;19.30;70.50
23147;DHT22;11742;53.532;-1.478;2022-08-01T06:15:11;19.30;70.50
23147;DHT22;11742;53.532;-1.478;2022-08-01T06:17:37;19.30;70.60
23147;DHT22;11742;53.532;-1.478;2022-08-01T06:20:05;19.30;70.60
23147;DHT22;11742;53.532;-1.478;2022-08-01T06:22:32;19.30;70.60
23147;DHT22;11742;53.532;-1.478;2022-08-01T06:24:57;19.30;70.60
23147;DHT22;11742;53.532;-1.478;2022-08-01T06:27:23;19.40;70.70
23147;DHT22;11742;53.532;-1.478;2022-08-01T06:29:52;19.30;70.70
23147;DHT22;11742;53.532;-1.478;2022-08-01T06:32:22;19.40;70.70
23147;DHT22;11742;53.532;-1.478;2022-08-01T06:34:48;19.40;70.70
23147;DHT22;11742;53.532;-1.478;2022-08-01T06:37:14;19.40;70.60
23147;DHT22;11742;53.532;-1.478;2022-08-01T06:39:41;19.40;70.60
23147;DHT22;11742;53.532;-1.478;2022-08-01T06:42:07;19.40;70.50
23147;DHT22;11742;53.532;-1.478;2022-08-01T06:44:34;19.40;70.40
23147;DHT22;11742;53.532;-1.478;2022-08-01T06:46:59;19.40;70.40
23147;DHT22;11742;53.532;-1.478;2022-08-01T06:49:25;19.40;70.30
23147;DHT22;11742;53.532;-1.478;2022-08-01T06:51:51;19.40;70.10
23147;DHT22;11742;53.532;-1.478;2022-08-01T06:54:16;19.40;70.10
23147;DHT22;11742;53.532;-1.478;2022-08-01T06:56:42;19.50;70.10
23147;DHT22;11742;53.532;-1.478;2022-08-01T06:59:08;19.50;70.10
23147;DHT22;11742;53.532;-1.478;2022-08-01T07:01:35;19.50;70.10
23147;DHT22;11742;53.532;-1.478;2022-08-01T07:04:01;19.50;70.10
23147;DHT22;11742;53.532;-1.478;2022-08-01T07:06:28;19.50;70.20
23147;DHT22;11742;53.532;-1.478;2022-08-01T07:08:53;19.50;70.20
23147;DHT22;11742;53.532;-1.478;2022-08-01T07:11:20;19.60;70.20
23147;DHT22;11742;53.532;-1.478;2022-08-01T07:13:46;19.60;70.20
23147;DHT22;11742;53.532;-1.478;2022-08-01T07:16:13;19.60;70.10
23147;DHT22;11742;53.532;-1.478;2022-08-01T07:18:39;19.60;70.00
23147;DHT22;11742;53.532;-1.478;2022-08-01T07:21:04;19.70;70.00
23147;DHT22;11742;53.532;-1.478;2022-08-01T07:23:30;19.70;70.00
23147;DHT22;11742;53.532;-1.478;2022-08-01T07:25:56;19.70;69.90
23147;DHT22;11742;53.532;-1.478;2022-08-01T07:28:22;19.70;69.90
23147;DHT22;11742;53.532;-1.478;2022-08-01T07:30:47;19.80;70.00
23147;DHT22;11742;53.532;-1.478;2022-08-01T07:33:13;19.80;70.10
23147;DHT22;11742;53.532;-1.478;2022-08-01T07:35:40;19.80;70.20
23147;DHT22;11742;53.532;-1.478;2022-08-01T07:38:06;19.90;70.50
23147;DHT22;11742;53.532;-1.478;2022-08-01T07:40:32;19.90;70.40
23147;DHT22;11742;53.532;-1.478;2022-08-01T07:42:58;19.90;70.50
23147;DHT22;11742;53.532;-1.478;2022-08-01T07:45:24;20.00;70.60
23147;DHT22;11742;53.532;-1.478;2022-08-01T07:47:50;20.00;70.70
23147;DHT22;11742;53.532;-1.478;2022-08-01T07:50:16;20.10;70.90
23147;DHT22;11742;53.532;-1.478;2022-08-01T07:52:42;20.20;71.10
23147;DHT22;11742;53.532;-1.478;2022-08-01T07:55:09;20.30;71.20
23147;DHT22;11742;53.532;-1.478;2022-08-01T07:57:35;20.30;71.40
23147;DHT22;11742;53.532;-1.478;2022-08-01T08:00:02;20.30;71.30
23147;DHT22;11742;53.532;-1.478;2022-08-01T08:02:28;20.40;71.40
23147;DHT22;11742;53.532;-1.478;2022-08-01T08:04:54;20.50;71.50
23147;DHT22;11742;53.532;-1.478;2022-08-01T08:07:20;20.60;71.60
23147;DHT22;11742;53.532;-1.478;2022-08-01T08:09:45;20.60;71.80
23147;DHT22;11742;53.532;-1.478;2022-08-01T08:12:11;20.70;71.60
23147;DHT22;11742;53.532;-1.478;2022-08-01T08:14:37;20.70;71.60
23147;DHT22;11742;53.532;-1.478;2022-08-01T08:17:04;20.80;71.50
23147;DHT22;11742;53.532;-1.478;2022-08-01T08:19:30;20.90;71.90
23147;DHT22;11742;53.532;-1.478;2022-08-01T08:21:59;20.90;71.70
23147;DHT22;11742;53.532;-1.478;2022-08-01T08:24:25;21.00;71.90
23147;DHT22;11742;53.532;-1.478;2022-08-01T08:26:57;21.10;72.00
23147;DHT22;11742;53.532;-1.478;2022-08-01T08:29:23;21.10;72.00
23147;DHT22;11742;53.532;-1.478;2022-08-01T08:31:49;21.20;71.70
23147;DHT22;11742;53.532;-1.478;2022-08-01T08:34:16;21.30;71.80
23147;DHT22;11742;53.532;-1.478;2022-08-01T08:36:42;21.40;71.90
23147;DHT22;11742;53.532;-1.478;2022-08-01T08:39:08;21.40;72.00
23147;DHT22;11742;53.532;-1.478;2022-08-01T08:41:34;21.50;71.60
23147;DHT22;11742;53.532;-1.478;2022-08-01T08:44:07;21.60;71.50
23147;DHT22;11742;53.532;-1.478;2022-08-01T08:46:33;21.60;71.20
23147;DHT22;11742;53.532;-1.478;2022-08-01T08:49:05;21.70;70.60
23147;DHT22;11742;53.532;-1.478;2022-08-01T08:51:34;21.80;70.90
23147;DHT22;11742;53.532;-1.478;2022-08-01T08:54:00;21.90;70.70
23147;DHT22;11742;53.532;-1.478;2022-08-01T08:56:28;21.90;70.00
23147;DHT22;11742;53.532;-1.478;2022-08-01T08:58:59;22.00;70.10
23147;DHT22;11742;53.532;-1.478;2022-08-01T09:01:25;22.00;70.30
23147;DHT22;11742;53.532;-1.478;2022-08-01T09:03:51;22.20;70.70
23147;DHT22;11742;53.532;-1.478;2022-08-01T09:06:17;22.20;70.80
23147;DHT22;11742;53.532;-1.478;2022-08-01T09:08:42;22.30;70.80
23147;DHT22;11742;53.532;-1.478;2022-08-01T09:11:08;22.30;70.60
23147;DHT22;11742;53.532;-1.478;2022-08-01T09:13:34;22.40;70.50
23147;DHT22;11742;53.532;-1.478;2022-08-01T09:16:00;22.50;70.60
23147;DHT22;11742;53.532;-1.478;2022-08-01T09:18:36;22.50;70.60
23147;DHT22;11742;53.532;-1.478;2022-08-01T09:21:14;22.60;70.40
23147;DHT22;11742;53.532;-1.478;2022-08-01T09:23:53;22.70;70.30
23147;DHT22;11742;53.532;-1.478;2022-08-01T09:26:22;22.80;70.30
23147;DHT22;11742;53.532;-1.478;2022-08-01T09:28:54;22.80;70.10
23147;DHT22;11742;53.532;-1.478;2022-08-01T09:31:20;22.90;70.20
23147;DHT22;11742;53.532;-1.478;2022-08-01T09:33:59;23.00;70.10
23147;DHT22;11742;53.532;-1.478;2022-08-01T09:36:47;23.10;70.00
23147;DHT22;11742;53.532;-1.478;2022-08-01T09:39:17;23.20;69.00
23147;DHT22;11742;53.532;-1.478;2022-08-01T09:41:43;23.10;61.10
23147;DHT22;11742;53.532;-1.478;2022-08-01T09:44:09;23.10;61.40
23147;DHT22;11742;53.532;-1.478;2022-08-01T09:46:34;23.00;60.20
23147;DHT22;11742;53.532;-1.478;2022-08-01T09:49:05;23.10;63.20
23147;DHT22;11742;53.532;-1.478;2022-08-01T09:51:37;23.20;63.60
23147;DHT22;11742;53.532;-1.478;2022-08-01T09:54:05;23.20;60.50
23147;DHT22;11742;53.532;-1.478;2022-08-01T09:56:38;23.20;61.90
23147;DHT22;11742;53.532;-1.478;2022-08-01T09:59:05;23.20;62.20
23147;DHT22;11742;53.532;-1.478;2022-08-01T10:01:50;23.30;63.30
23147;DHT22;11742;53.532;-1.478;2022-08-01T10:04:22;23.30;63.90
23147;DHT22;11742;53.532;-1.478;2022-08-01T10:06:50;23.40;64.30
23147;DHT22;11742;53.532;-1.478;2022-08-01T10:09:31;23.50;64.70
23147;DHT22;11742;53.532;-1.478;2022-08-01T10:11:59;23.50;64.90
23147;DHT22;11742;53.532;-1.478;2022-08-01T10:14:26;23.60;65.00
23147;DHT22;11742;53.532;-1.478;2022-08-01T10:16:53;23.60;65.00
23147;DHT22;11742;53.532;-1.478;2022-08-01T10:19:22;23.60;65.20
23147;DHT22;11742;53.532;-1.478;2022-08-01T10:21:50;23.70;65.40
23147;DHT22;11742;53.532;-1.478;2022-08-01T10:24:20;23.70;65.50
23147;DHT22;11742;53.532;-1.478;2022-08-01T10:26:52;23.80;65.70
23147;DHT22;11742;53.532;-1.478;2022-08-01T10:29:21;23.80;65.70
23147;DHT22;11742;53.532;-1.478;2022-08-01T10:31:48;23.90;65.80
23147;DHT22;11742;53.532;-1.478;2022-08-01T10:34:16;23.90;66.00
23147;DHT22;11742;53.532;-1.478;2022-08-01T10:36:45;24.00;65.90
23147;DHT22;11742;53.532;-1.478;2022-08-01T10:39:12;24.00;66.10
23147;DHT22;11742;53.532;-1.478;2022-08-01T10:41:41;24.10;66.20
23147;DHT22;11742;53.532;-1.478;2022-08-01T10:44:10;24.10;66.20
23147;DHT22;11742;53.532;-1.478;2022-08-01T10:46:39;24.20;66.30
23147;DHT22;11742;53.532;-1.478;2022-08-01T10:49:13;24.30;66.40
23147;DHT22;11742;53.532;-1.478;2022-08-01T10:51:40;24.30;66.10
23147;DHT22;11742;53.532;-1.478;2022-08-01T10:54:09;24.40;65.50
23147;DHT22;11742;53.532;-1.478;2022-08-01T10:56:46;24.40;65.30
23147;DHT22;11742;53.532;-1.478;2022-08-01T10:59:30;24.50;64.60
23147;DHT22;11742;53.532;-1.478;2022-08-01T11:02:03;24.50;65.00
23147;DHT22;11742;53.532;-1.478;2022-08-01T11:04:55;24.60;65.00
23147;DHT22;11742;53.532;-1.478;2022-08-01T11:07:34;24.60;64.30
23147;DHT22;11742;53.532;-1.478;2022-08-01T11:10:23;24.70;63.80
23147;DHT22;11742;53.532;-1.478;2022-08-01T11:12:49;24.70;64.40
23147;DHT22;11742;53.532;-1.478;2022-08-01T11:17:44;24.80;64.20
23147;DHT22;11742;53.532;-1.478;2022-08-01T11:20:18;24.80;65.20
23147;DHT22;11742;53.532;-1.478;2022-08-01T11:30:48;24.90;64.10
23147;DHT22;11742;53.532;-1.478;2022-08-01T11:33:17;25.00;63.80
23147;DHT22;11742;53.532;-1.478;2022-08-01T11:38:41;25.00;62.70
23147;DHT22;11742;53.532;-1.478;2022-08-01T11:44:07;25.10;63.00
23147;DHT22;11742;53.532;-1.478;2022-08-01T11:49:28;25.10;63.30
23147;DHT22;11742;53.532;-1.478;2022-08-01T11:52:10;25.20;63.50
23147;DHT22;11742;53.532;-1.478;2022-08-01T11:54:54;25.20;63.20
23147;DHT22;11742;53.532;-1.478;2022-08-01T11:57:25;25.20;62.50
23147;DHT22;11742;53.532;-1.478;2022-08-01T11:59:56;25.30;62.50
23147;DHT22;11742;53.532;-1.478;2022-08-01T12:02:26;25.40;62.60
23147;DHT22;11742;53.532;-1.478;2022-08-01T12:05:10;25.40;62.30
23147;DHT22;11742;53.532;-1.478;2022-08-01T12:07:40;25.50;62.20
23147;DHT22;11742;53.532;-1.478;2022-08-01T12:10:12;25.50;61.80
23147;DHT22;11742;53.532;-1.478;2022-08-01T12:12:46;25.50;61.70
23147;DHT22;11742;53.532;-1.478;2022-08-01T12:15:13;25.50;62.00
23147;DHT22;11742;53.532;-1.478;2022-08-01T12:17:44;25.60;62.20
23147;DHT22;11742;53.532;-1.478;2022-08-01T12:20:14;25.60;61.90
23147;DHT22;11742;53.532;-1.478;2022-08-01T12:22:41;25.70;62.20
23147;DHT22;11742;53.532;-1.478;2022-08-01T12:25:13;25.70;62.30
23147;DHT22;11742;53.532;-1.478;2022-08-01T12:27:41;25.70;61.90
23147;DHT22;11742;53.532;-1.478;2022-08-01T12:30:09;25.70;61.20
23147;DHT22;11742;53.532;-1.478;2022-08-01T12:32:37;25.80;61.30
23147;DHT22;11742;53.532;-1.478;2022-08-01T12:35:08;25.80;61.50
23147;DHT22;11742;53.532;-1.478;2022-08-01T12:37:52;25.90;61.70
23147;DHT22;11742;53.532;-1.478;2022-08-01T12:40:20;25.90;61.90
23147;DHT22;11742;53.532;-1.478;2022-08-01T12:42:51;26.00;62.20
23147;DHT22;11742;53.532;-1.478;2022-08-01T12:45:21;26.00;62.00
23147;DHT22;11742;53.532;-1.478;2022-08-01T12:47:47;26.00;61.60
23147;DHT22;11742;53.532;-1.478;2022-08-01T12:50:20;26.00;61.40
23147;DHT22;11742;53.532;-1.478;2022-08-01T12:52:47;26.10;61.30
23147;DHT22;11742;53.532;-1.478;2022-08-01T12:55:23;26.10;61.00
23147;DHT22;11742;53.532;-1.478;2022-08-01T12:58:11;26.20;60.80
23147;DHT22;11742;53.532;-1.478;2022-08-01T13:00:39;26.20;61.20
23147;DHT22;11742;53.532;-1.478;2022-08-01T13:03:08;26.30;60.70
23147;DHT22;11742;53.532;-1.478;2022-08-01T13:08:18;26.30;60.00
23147;DHT22;11742;53.532;-1.478;2022-08-01T13:10:45;26.40;59.90
23147;DHT22;11742;53.532;-1.478;2022-08-01T13:13:12;26.40;59.90
23147;DHT22;11742;53.532;-1.478;2022-08-01T13:15:40;26.40;59.80
23147;DHT22;11742;53.532;-1.478;2022-08-01T13:18:28;26.40;60.20
23147;DHT22;11742;53.532;-1.478;2022-08-01T13:21:21;26.50;59.60
23147;DHT22;11742;53.532;-1.478;2022-08-01T13:24:06;26.50;59.80
23147;DHT22;11742;53.532;-1.478;2022-08-01T13:26:51;26.50;60.00
23147;DHT22;11742;53.532;-1.478;2022-08-01T13:29:18;26.50;59.60
23147;DHT22;11742;53.532;-1.478;2022-08-01T13:31:44;26.60;59.50
23147;DHT22;11742;53.532;-1.478;2022-08-01T13:34:10;26.60;59.40
23147;DHT22;11742;53.532;-1.478;2022-08-01T13:36:36;26.70;59.50
23147;DHT22;11742;53.532;-1.478;2022-08-01T13:39:03;26.70;59.30
23147;DHT22;11742;53.532;-1.478;2022-08-01T13:41:47;26.70;59.00
23147;DHT22;11742;53.532;-1.478;2022-08-01T13:44:13;26.70;58.80
23147;DHT22;11742;53.532;-1.478;2022-08-01T13:46:40;26.80;58.70
23147;DHT22;11742;53.532;-1.478;2022-08-01T13:49:07;26.80;58.60
23147;DHT22;11742;53.532;-1.478;2022-08-01T13:51:34;26.90;58.80
23147;DHT22;11742;53.532;-1.478;2022-08-01T13:54:00;26.90;58.90
23147;DHT22;11742;53.532;-1.478;2022-08-01T13:56:26;26.90;59.00
23147;DHT22;11742;53.532;-1.478;2022-08-01T13:58:56;27.00;58.50
23147;DHT22;11742;53.532;-1.478;2022-08-01T14:01:22;27.00;57.90
23147;DHT22;11742;53.532;-1.478;2022-08-01T14:03:48;27.00;57.90
23147;DHT22;11742;53.532;-1.478;2022-08-01T14:06:15;27.00;58.10
23147;DHT22;11742;53.532;-1.478;2022-08-01T14:08:42;27.00;58.00
23147;DHT22;11742;53.532;-1.478;2022-08-01T14:11:08;27.10;58.30
23147;DHT22;11742;53.532;-1.478;2022-08-01T14:13:33;27.10;58.40
23147;DHT22;11742;53.532;-1.478;2022-08-01T14:15:59;27.10;58.20
23147;DHT22;11742;53.532;-1.478;2022-08-01T14:18:26;27.10;58.00
23147;DHT22;11742;53.532;-1.478;2022-08-01T14:20:52;27.20;57.80
23147;DHT22;11742;53.532;-1.478;2022-08-01T14:23:17;27.20;57.50
23147;DHT22;11742;53.532;-1.478;2022-08-01T14:25:43;27.20;57.30
23147;DHT22;11742;53.532;-1.478;2022-08-01T14:28:09;27.20;57.30
23147;DHT22;11742;53.532;-1.478;2022-08-01T14:30:36;27.20;57.60
23147;DHT22;11742;53.532;-1.478;2022-08-01T14:33:02;27.30;58.50
23147;DHT22;11742;53.532;-1.478;2022-08-01T14:35:28;27.30;57.90
23147;DHT22;11742;53.532;-1.478;2022-08-01T14:37:54;27.30;57.90
23147;DHT22;11742;53.532;-1.478;2022-08-01T14:40:20;27.30;58.20
23147;DHT22;11742;53.532;-1.478;2022-08-01T14:42:45;27.40;58.20
23147;DHT22;11742;53.532;-1.478;2022-08-01T14:45:12;27.40;58.30
23147;DHT22;11742;53.532;-1.478;2022-08-01T14:47:41;27.40;58.20
23147;DHT22;11742;53.532;-1.478;2022-08-01T14:50:09;27.50;58.40
23147;DHT22;11742;53.532;-1.478;2022-08-01T14:52:36;27.50;58.40
23147;DHT22;11742;53.532;-1.478;2022-08-01T14:55:03;27.50;58.70
23147;DHT22;11742;53.532;-1.478;2022-08-01T14:57:30;27.50;58.60
23147;DHT22;11742;53.532;-1.478;2022-08-01T14:59:55;27.60;58.50
23147;DHT22;11742;53.532;-1.478;2022-08-01T15:02:21;27.60;58.60
23147;DHT22;11742;53.532;-1.478;2022-08-01T15:04:48;27.70;58.60
23147;DHT22;11742;53.532;-1.478;2022-08-01T15:07:14;27.60;58.40
23147;DHT22;11742;53.532;-1.478;2022-08-01T15:09:40;27.70;58.30
23147;DHT22;11742;53.532;-1.478;2022-08-01T15:12:07;27.60;54.20
23147;DHT22;11742;53.532;-1.478;2022-08-01T15:14:33;27.40;54.00
23147;DHT22;11742;53.532;-1.478;2022-08-01T15:17:22;27.10;53.20
23147;DHT22;11742;53.532;-1.478;2022-08-01T15:19:50;26.90;53.80
23147;DHT22;11742;53.532;-1.478;2022-08-01T15:22:16;26.80;53.90
23147;DHT22;11742;53.532;-1.478;2022-08-01T15:24:42;26.60;53.80
23147;DHT22;11742;53.532;-1.478;2022-08-01T15:27:09;26.50;54.70
23147;DHT22;11742;53.532;-1.478;2022-08-01T15:29:35;26.60;55.70
23147;DHT22;11742;53.532;-1.478;2022-08-01T15:32:02;26.60;56.20
23147;DHT22;11742;53.532;-1.478;2022-08-01T15:34:28;26.70;56.80
23147;DHT22;11742;53.532;-1.478;2022-08-01T15:36:54;26.70;57.10
23147;DHT22;11742;53.532;-1.478;2022-08-01T15:39:20;26.80;57.20
23147;DHT22;11742;53.532;-1.478;2022-08-01T15:41:46;26.80;57.50
23147;DHT22;11742;53.532;-1.478;2022-08-01T15:44:12;26.80;57.60
23147;DHT22;11742;53.532;-1.478;2022-08-01T15:46:37;26.90;57.60
23147;DHT22;11742;53.532;-1.478;2022-08-01T15:49:06;26.90;58.00
23147;DHT22;11742;53.532;-1.478;2022-08-01T15:51:32;26.90;58.10
23147;DHT22;11742;53.532;-1.478;2022-08-01T15:53:59;27.00;58.00
23147;DHT22;11742;53.532;-1.478;2022-08-01T15:56:29;27.00;57.30
23147;DHT22;11742;53.532;-1.478;2022-08-01T15:58:55;27.00;57.60